createdAt,value
2022-11-26T00:01:14.411Z,22.40
2022-11-26T00:03:44.724Z,20.63
2022-11-26T00:06:26.329Z,21.85
2022-11-26T00:08:55.081Z,22.15
2022-11-26T00:11:25.752Z,23.00
2022-11-26T00:13:56.972Z,24.67
2022-11-26T00:16:29.428Z,20.83
2022-11-26T00:19:05.920Z,17.85
2022-11-26T00:21:41.489Z,19.83
2022-11-26T00:24:30.333Z,20.45
2022-11-26T00:27:03.242Z,22.92
2022-11-26T00:29:35.390Z,18.98
2022-11-26T00:32:18.841Z,19.23
2022-11-26T00:34:48.328Z,17.88
2022-11-26T00:37:21.376Z,20.45
2022-11-26T00:39:49.889Z,21.17
2022-11-26T00:42:18.324Z,21.05
2022-11-26T00:44:46.529Z,25.05
2022-11-26T00:47:14.647Z,18.63
2022-11-26T00:49:42.764Z,18.42
2022-11-26T00:52:25.839Z,24.23
2022-11-26T00:54:54.030Z,18.73
2022-11-26T00:57:22.219Z,22.15
2022-11-26T00:59:50.266Z,19.20
2022-11-26T01:02:18.298Z,19.65
2022-11-26T01:04:46.592Z,17.40
2022-11-26T01:07:16.106Z,22.10
2022-11-26T01:09:47.232Z,21.17
2022-11-26T01:12:16.656Z,19.88
2022-11-26T01:14:44.916Z,17.25
2022-11-26T01:17:13.461Z,20.15
2022-11-26T01:19:41.479Z,19.10
2022-11-26T01:22:20.921Z,20.15
2022-11-26T01:24:49.463Z,17.30
2022-11-26T01:27:18.517Z,21.42
2022-11-26T01:29:46.576Z,19.17
2022-11-26T01:32:14.632Z,17.05
2022-11-26T01:34:42.683Z,18.85
2022-11-26T01:37:14.993Z,19.63
2022-11-26T01:39:44.364Z,23.35
2022-11-26T01:42:26.214Z,19.77
2022-11-26T01:44:54.197Z,16.02
2022-11-26T01:47:23.877Z,15.27
2022-11-26T01:50:34.107Z,15.25
2022-11-26T01:53:04.899Z,17.60
2022-11-26T01:55:39.537Z,17.20
2022-11-26T01:58:11.353Z,18.20
2022-11-26T02:00:39.524Z,12.88
2022-11-26T02:03:08.722Z,15.63
2022-11-26T02:05:43.532Z,15.30
2022-11-26T02:08:12.665Z,15.85
2022-11-26T02:10:42.110Z,14.65
2022-11-26T02:13:10.164Z,17.95
2022-11-26T02:15:44.311Z,15.73
2022-11-26T02:18:12.590Z,15.30
2022-11-26T02:20:55.656Z,14.73
2022-11-26T02:23:54.272Z,14.38
2022-11-26T02:26:58.938Z,19.15
2022-11-26T02:29:34.270Z,17.23
2022-11-26T02:32:09.576Z,13.75
2022-11-26T02:34:45.216Z,24.52
2022-11-26T02:37:19.800Z,15.02
2022-11-26T02:39:47.975Z,13.18
2022-11-26T02:42:26.618Z,11.18
2022-11-26T02:44:58.263Z,19.80
2022-11-26T02:47:29.405Z,18.35
2022-11-26T02:50:01.260Z,14.48
2022-11-26T02:52:30.745Z,14.55
2022-11-26T02:54:59.454Z,16.30
2022-11-26T02:57:31.564Z,18.75
2022-11-26T02:59:59.893Z,15.75
2022-11-26T03:02:36.497Z,17.10
2022-11-26T03:05:06.374Z,15.55
2022-11-26T03:07:36.607Z,16.73
2022-11-26T03:10:06.646Z,12.40
2022-11-26T03:12:34.702Z,13.88
2022-11-26T03:15:02.900Z,15.98
2022-11-26T03:17:32.373Z,14.20
2022-11-26T03:20:00.441Z,21.77
2022-11-26T03:22:28.901Z,14.85
2022-11-26T03:24:56.959Z,14.40
2022-11-26T03:27:27.342Z,17.65
2022-11-26T03:29:55.496Z,12.38
2022-11-26T03:32:23.644Z,20.58
2022-11-26T03:34:53.288Z,14.75
2022-11-26T03:37:21.416Z,18.05
2022-11-26T03:39:49.548Z,17.33
2022-11-26T03:42:17.692Z,16.40
2022-11-26T03:44:45.696Z,16.77
2022-11-26T03:47:13.899Z,20.55
2022-11-26T03:49:42.013Z,14.60
2022-11-26T03:52:11.527Z,16.35
2022-11-26T03:54:39.749Z,17.42
2022-11-26T03:57:08.037Z,17.35
2022-11-26T03:59:36.213Z,13.93
2022-11-26T04:02:04.939Z,15.00
2022-11-26T04:04:33.184Z,18.52
2022-11-26T04:07:01.439Z,14.68
2022-11-26T04:09:33.374Z,21.88
2022-11-26T04:12:01.620Z,16.83
2022-11-26T04:14:29.870Z,17.38
2022-11-26T04:16:58.016Z,18.67
2022-11-26T04:19:26.373Z,18.73
2022-11-26T04:21:54.431Z,16.13
2022-11-26T04:24:22.537Z,16.88
2022-11-26T04:26:51.942Z,16.20
2022-11-26T04:29:20.076Z,17.60
2022-11-26T04:31:49.186Z,16.73
2022-11-26T04:34:17.299Z,16.48
2022-11-26T04:36:45.382Z,17.60
2022-11-26T04:39:13.556Z,18.00
2022-11-26T04:41:42.873Z,15.65
2022-11-26T04:44:12.266Z,15.88
2022-11-26T04:46:40.373Z,18.95
2022-11-26T04:49:08.481Z,16.23
2022-11-26T04:51:36.653Z,13.68
2022-11-26T04:54:09.909Z,16.70
2022-11-26T04:56:40.812Z,18.20
2022-11-26T04:59:08.958Z,14.43
2022-11-26T05:01:38.505Z,17.25
2022-11-26T05:04:06.795Z,14.55
2022-11-26T05:06:34.961Z,14.32
2022-11-26T05:09:03.178Z,18.15
2022-11-26T05:11:31.299Z,16.65
2022-11-26T05:13:59.448Z,21.88
2022-11-26T05:16:30.205Z,13.90
2022-11-26T05:18:59.631Z,15.80
2022-11-26T05:21:27.709Z,19.08
2022-11-26T05:23:55.686Z,17.13
2022-11-26T05:26:23.803Z,14.02
2022-11-26T05:28:54.176Z,15.80
2022-11-26T05:31:22.373Z,23.42
2022-11-26T05:33:50.485Z,27.35
2022-11-26T05:36:19.849Z,13.52
2022-11-26T05:38:47.999Z,12.23
2022-11-26T05:41:16.121Z,19.10
2022-11-26T05:43:44.147Z,14.85
2022-11-26T05:46:15.793Z,18.05
2022-11-26T05:48:43.925Z,17.65
2022-11-26T05:51:12.393Z,18.48
2022-11-26T05:53:41.872Z,15.82
2022-11-26T05:56:10.025Z,22.65
2022-11-26T05:58:38.255Z,16.10
2022-11-26T06:01:09.283Z,21.73
2022-11-26T06:03:37.525Z,16.15
2022-11-26T06:06:06.066Z,17.08
2022-11-26T06:08:34.265Z,15.40
2022-11-26T06:11:03.677Z,18.08
2022-11-26T06:13:31.905Z,17.27
2022-11-26T06:15:59.922Z,15.05
2022-11-26T06:18:27.912Z,20.25
2022-11-26T06:20:56.000Z,15.15
2022-11-26T06:23:24.096Z,18.58
2022-11-26T06:25:52.135Z,14.63
2022-11-26T06:28:21.522Z,15.13
2022-11-26T06:30:49.539Z,15.13
2022-11-26T06:33:17.586Z,18.75
2022-11-26T06:35:45.886Z,19.45
2022-11-26T06:38:16.217Z,16.88
2022-11-26T06:40:44.251Z,16.85
2022-11-26T06:43:12.446Z,17.67
2022-11-26T06:45:42.025Z,13.77
2022-11-26T06:48:10.065Z,19.98
2022-11-26T06:50:38.147Z,17.23
2022-11-26T06:53:06.155Z,14.65
2022-11-26T06:55:34.239Z,16.38
2022-11-26T06:58:02.392Z,14.88
2022-11-26T07:00:30.488Z,13.73
2022-11-26T07:02:59.964Z,16.55
2022-11-26T07:05:28.172Z,13.27
2022-11-26T07:07:56.277Z,15.63
2022-11-26T07:10:24.320Z,17.58
2022-11-26T07:12:52.412Z,16.20
2022-11-26T07:15:20.451Z,11.75
2022-11-26T07:17:50.525Z,15.35
2022-11-26T07:20:20.094Z,14.73
2022-11-26T07:22:50.191Z,11.30
2022-11-26T07:25:18.315Z,13.50
2022-11-26T07:27:46.516Z,14.48
2022-11-26T07:30:17.406Z,12.50
2022-11-26T07:32:45.425Z,14.90
2022-11-26T07:35:18.989Z,15.18
2022-11-26T07:37:46.980Z,17.13
2022-11-26T07:40:15.450Z,16.77
2022-11-26T07:42:50.395Z,16.05
2022-11-26T07:45:25.447Z,14.93
2022-11-26T07:47:53.500Z,15.43
2022-11-26T07:50:22.956Z,16.60
2022-11-26T07:52:53.144Z,14.55
2022-11-26T07:55:23.509Z,13.35
2022-11-26T07:57:53.746Z,12.82
2022-11-26T08:00:22.425Z,13.85
2022-11-26T08:02:50.816Z,14.93
2022-11-26T08:05:18.982Z,18.48
2022-11-26T08:07:48.583Z,15.35
2022-11-26T08:10:16.751Z,15.00
2022-11-26T08:12:45.591Z,10.57
2022-11-26T08:15:13.691Z,17.77
2022-11-26T08:17:41.813Z,18.83
2022-11-26T08:20:10.731Z,14.50
2022-11-26T08:22:38.802Z,15.70
2022-11-26T08:25:10.151Z,13.77
2022-11-26T08:27:38.381Z,16.10
2022-11-26T08:30:08.449Z,14.18
2022-11-26T08:32:36.794Z,12.98
2022-11-26T08:35:07.793Z,13.93
2022-11-26T08:37:35.782Z,10.50
2022-11-26T08:40:03.859Z,10.60
2022-11-26T08:42:33.560Z,16.30
2022-11-26T08:45:01.616Z,20.45
2022-11-26T08:47:29.969Z,15.30
2022-11-26T08:49:58.024Z,14.70
2022-11-26T08:52:26.591Z,14.90
2022-11-26T08:54:54.607Z,14.30
2022-11-26T08:57:23.059Z,16.35
2022-11-26T08:59:55.068Z,14.43
2022-11-26T09:02:23.568Z,16.83
2022-11-26T09:04:53.454Z,12.40
2022-11-26T09:07:21.851Z,13.75
2022-11-26T09:09:49.903Z,14.25
2022-11-26T09:12:19.151Z,13.05
2022-11-26T09:14:48.577Z,16.70
2022-11-26T09:17:18.127Z,16.08
2022-11-26T09:19:47.238Z,15.00
2022-11-26T09:22:15.254Z,12.73
2022-11-26T09:24:43.378Z,18.77
2022-11-26T09:27:11.968Z,16.10
2022-11-26T09:29:40.000Z,15.80
2022-11-26T09:32:24.320Z,15.95
2022-11-26T09:34:55.747Z,20.45
2022-11-26T09:37:23.811Z,14.65
2022-11-26T09:39:54.160Z,17.83
2022-11-26T09:42:33.090Z,16.65
2022-11-26T09:45:09.817Z,12.25
2022-11-26T09:47:42.725Z,12.43
2022-11-26T09:50:26.302Z,18.67
2022-11-26T09:52:59.392Z,13.77
2022-11-26T09:55:31.965Z,17.70
2022-11-26T09:58:08.368Z,15.10
2022-11-26T10:00:40.389Z,17.73
2022-11-26T10:03:14.590Z,16.77
2022-11-26T10:05:50.982Z,17.25
2022-11-26T10:08:43.511Z,16.65
2022-11-26T10:11:20.463Z,15.52
2022-11-26T10:13:59.868Z,17.73
2022-11-26T10:16:33.774Z,16.88
2022-11-26T10:19:09.703Z,17.50
2022-11-26T10:21:58.798Z,19.75
2022-11-26T10:24:30.751Z,14.93
2022-11-26T10:27:02.480Z,18.77
2022-11-26T10:29:38.255Z,20.95
2022-11-26T10:32:15.479Z,18.80
2022-11-26T10:34:50.613Z,15.77
2022-11-26T10:37:21.486Z,22.83
2022-11-26T10:39:55.251Z,15.65
2022-11-26T10:42:26.711Z,15.38
2022-11-26T10:44:57.050Z,20.50
2022-11-26T10:47:28.897Z,23.67
2022-11-26T10:50:39.487Z,18.65
2022-11-26T10:53:07.576Z,18.30
2022-11-26T10:55:40.590Z,15.88
2022-11-26T10:58:18.043Z,21.40
2022-11-26T11:00:55.290Z,19.05
2022-11-26T11:03:44.984Z,18.08
2022-11-26T11:06:28.088Z,22.55
2022-11-26T11:08:57.534Z,21.08
2022-11-26T11:11:27.264Z,21.52
2022-11-26T11:13:58.281Z,16.50
2022-11-26T11:16:29.731Z,14.43
2022-11-26T11:18:59.490Z,12.68
2022-11-26T11:21:31.075Z,17.73
2022-11-26T11:24:19.043Z,17.88
2022-11-26T11:26:49.672Z,18.77
2022-11-26T11:29:32.628Z,30.73
2022-11-26T11:32:04.315Z,15.77
2022-11-26T11:34:35.299Z,16.15
2022-11-26T11:37:05.635Z,14.48
2022-11-26T11:39:36.528Z,14.80
2022-11-26T11:43:23.765Z,16.77
2022-11-26T11:46:04.274Z,14.10
2022-11-26T11:48:44.143Z,15.05
2022-11-26T11:51:23.037Z,20.45
2022-11-26T11:54:03.238Z,14.35
2022-11-26T11:56:38.104Z,18.88
2022-11-26T11:59:23.273Z,14.60
2022-11-26T12:02:17.112Z,16.35
2022-11-26T12:05:04.702Z,17.63
2022-11-26T12:07:38.124Z,16.50
2022-11-26T12:10:14.989Z,13.82
2022-11-26T12:12:47.664Z,17.85
2022-11-26T12:15:24.539Z,18.23
2022-11-26T12:18:00.723Z,18.45
2022-11-26T12:20:35.511Z,15.88
2022-11-26T12:23:24.457Z,14.45
2022-11-26T12:25:57.909Z,17.38
2022-11-26T12:28:29.010Z,15.00
2022-11-26T12:31:02.861Z,14.45
2022-11-26T12:33:35.912Z,16.45
2022-11-26T12:36:13.846Z,14.77
2022-11-26T12:38:46.317Z,17.77
2022-11-26T12:41:19.343Z,17.73
2022-11-26T12:43:54.312Z,19.55
2022-11-26T12:46:32.437Z,13.45
2022-11-26T12:49:12.082Z,13.68
2022-11-26T12:51:44.934Z,16.15
2022-11-26T12:54:21.016Z,17.75
2022-11-26T12:56:58.110Z,16.13
2022-11-26T12:59:32.024Z,19.27
2022-11-26T13:02:15.507Z,19.20
2022-11-26T13:04:45.885Z,20.17
2022-11-26T13:07:28.239Z,19.35
2022-11-26T13:10:05.853Z,15.15
2022-11-26T13:12:46.724Z,20.52
2022-11-26T13:15:21.864Z,17.23
2022-11-26T13:17:53.952Z,16.50
2022-11-26T13:20:54.351Z,20.67
2022-11-26T13:23:36.156Z,19.90
2022-11-26T13:26:26.108Z,21.27
2022-11-26T13:29:11.410Z,21.17
2022-11-26T13:31:55.076Z,22.83
2022-11-26T13:34:53.497Z,16.42
2022-11-26T13:37:41.904Z,16.55
2022-11-26T13:40:38.111Z,19.70
2022-11-26T13:43:32.709Z,17.77
2022-11-26T13:46:17.583Z,19.45
2022-11-26T13:48:56.664Z,20.83
2022-11-26T13:51:30.538Z,19.10
2022-11-26T13:54:08.969Z,20.58
2022-11-26T13:56:38.765Z,17.00
2022-11-26T13:59:16.794Z,20.10
2022-11-26T14:01:45.146Z,19.33
2022-11-26T14:04:14.760Z,16.73
2022-11-26T14:10:00.119Z,22.55
2022-11-26T14:13:01.900Z,19.27
2022-11-26T14:15:58.268Z,17.42
2022-11-26T14:18:58.785Z,19.83
2022-11-26T14:21:26.954Z,15.70
2022-11-26T14:23:56.708Z,23.92
2022-11-26T14:26:30.116Z,19.42
2022-11-26T14:29:15.131Z,21.13
2022-11-26T14:31:49.767Z,18.83
2022-11-26T14:34:24.255Z,19.17
2022-11-26T14:36:55.430Z,19.15
2022-11-26T14:39:23.994Z,18.20
2022-11-26T14:41:57.871Z,19.20
2022-11-26T14:44:28.597Z,19.13
2022-11-26T14:46:59.897Z,14.60
2022-11-26T14:49:36.756Z,16.88
2022-11-26T14:52:15.725Z,19.08
2022-11-26T14:54:47.007Z,18.88
2022-11-26T14:57:21.200Z,19.70
2022-11-26T14:59:57.540Z,20.17
2022-11-26T15:02:27.458Z,16.50
2022-11-26T15:05:00.725Z,20.67
2022-11-26T15:07:32.324Z,19.65
2022-11-26T15:10:05.368Z,19.45
2022-11-26T15:12:37.588Z,18.55
2022-11-26T15:15:07.155Z,17.40
2022-11-26T15:17:37.153Z,18.42
2022-11-26T15:20:09.045Z,19.20
2022-11-26T15:22:39.356Z,19.50
2022-11-26T15:25:17.772Z,23.80
2022-11-26T15:27:55.952Z,25.70
2022-11-26T15:30:26.168Z,19.15
2022-11-26T15:33:05.267Z,19.25
2022-11-26T15:35:34.073Z,19.48
2022-11-26T15:38:02.223Z,14.82
2022-11-26T15:40:33.339Z,19.30
2022-11-26T15:43:05.119Z,18.70
2022-11-26T15:45:40.354Z,21.13
2022-11-26T15:48:27.495Z,16.33
2022-11-26T15:51:01.110Z,22.27
2022-11-26T15:53:32.920Z,20.45
2022-11-26T15:56:02.046Z,16.35
2022-11-26T15:58:34.914Z,18.35
2022-11-26T16:01:05.109Z,19.35
2022-11-26T16:03:42.973Z,17.65
2022-11-26T16:06:31.487Z,21.33
2022-11-26T16:09:02.624Z,16.17
2022-11-26T16:11:33.911Z,19.90
2022-11-26T16:14:24.827Z,20.13
2022-11-26T16:16:53.836Z,19.45
2022-11-26T16:19:22.966Z,19.35
2022-11-26T16:21:53.653Z,19.55
2022-11-26T16:24:29.813Z,25.58
2022-11-26T16:27:00.859Z,19.63
2022-11-26T16:29:31.229Z,24.33
2022-11-26T16:32:00.978Z,18.00
2022-11-26T16:34:31.120Z,23.42
2022-11-26T16:37:03.382Z,23.70
2022-11-26T16:39:37.519Z,19.92
2022-11-26T16:42:14.371Z,17.10
2022-11-26T16:44:50.111Z,18.55
2022-11-26T16:47:23.940Z,17.52
2022-11-26T16:49:52.146Z,16.75
2022-11-26T16:52:20.870Z,22.10
2022-11-26T16:54:51.590Z,20.45
2022-11-26T16:57:21.908Z,17.45
2022-11-26T16:59:54.795Z,19.80
2022-11-26T17:02:24.428Z,22.30
2022-11-26T17:04:52.799Z,20.70
2022-11-26T17:07:27.120Z,18.73
2022-11-26T17:09:55.455Z,23.98
2022-11-26T17:12:25.495Z,22.55
2022-11-26T17:14:54.989Z,23.45
2022-11-26T17:17:25.390Z,21.83
2022-11-26T17:19:53.824Z,22.15
2022-11-26T17:22:22.130Z,23.17
2022-11-26T17:24:50.379Z,21.98
2022-11-26T17:27:22.877Z,17.42
2022-11-26T17:29:50.995Z,20.40
2022-11-26T17:32:20.809Z,22.30
2022-11-26T17:34:49.175Z,20.90
2022-11-26T17:37:22.098Z,22.23
2022-11-26T17:39:50.431Z,21.35
2022-11-26T17:42:19.989Z,21.08
2022-11-26T17:44:48.310Z,22.77
2022-11-26T17:47:19.104Z,20.73
2022-11-26T17:49:48.912Z,20.10
2022-11-26T17:52:17.863Z,24.65
2022-11-26T17:54:46.987Z,19.88
2022-11-26T17:57:17.251Z,20.73
2022-11-26T17:59:45.867Z,21.23
2022-11-26T18:02:14.102Z,15.13
2022-11-26T18:04:42.206Z,19.85
2022-11-26T18:07:14.372Z,19.25
2022-11-26T18:09:42.960Z,22.08
2022-11-26T18:12:23.188Z,21.25
2022-11-26T18:14:56.065Z,21.67
2022-11-26T18:17:25.139Z,22.20
2022-11-26T18:19:53.377Z,21.50
2022-11-26T18:22:25.194Z,19.52
2022-11-26T18:24:57.035Z,22.90
2022-11-26T18:27:27.856Z,18.38
2022-11-26T18:29:56.150Z,21.95
2022-11-26T18:32:24.264Z,20.08
2022-11-26T18:34:52.452Z,24.33
2022-11-26T18:37:21.921Z,18.33
2022-11-26T18:39:50.187Z,21.13
2022-11-26T18:42:36.600Z,20.40
2022-11-26T18:45:06.844Z,18.90
2022-11-26T18:47:34.948Z,20.67
2022-11-26T18:50:03.317Z,21.52
2022-11-26T18:52:32.734Z,24.52
2022-11-26T18:55:04.557Z,19.70
2022-11-26T18:57:33.194Z,21.52
2022-11-26T19:00:01.246Z,22.58
2022-11-26T19:02:29.411Z,22.20
2022-11-26T19:04:58.201Z,23.17
2022-11-26T19:07:27.639Z,21.15
2022-11-26T19:09:57.289Z,21.73
2022-11-26T19:12:25.471Z,24.15
2022-11-26T19:14:53.879Z,18.25
2022-11-26T19:17:21.963Z,23.17
2022-11-26T19:19:52.412Z,21.27
2022-11-26T19:22:22.943Z,24.50
2022-11-26T19:24:51.154Z,22.33
2022-11-26T19:27:22.963Z,22.00
2022-11-26T19:29:53.231Z,22.40
2022-11-26T19:32:23.855Z,24.15
2022-11-26T19:34:51.926Z,25.48
2022-11-26T19:37:22.221Z,23.73
2022-11-26T19:39:50.349Z,20.55
2022-11-26T19:42:23.469Z,23.23
2022-11-26T19:44:51.617Z,25.48
2022-11-26T19:47:19.744Z,21.17
2022-11-26T19:49:48.756Z,28.23
2022-11-26T19:52:16.887Z,22.73
2022-11-26T19:54:44.989Z,24.25
2022-11-26T19:57:13.368Z,24.33
2022-11-26T19:59:42.907Z,20.42
2022-11-26T20:02:11.468Z,24.80
2022-11-26T20:04:39.646Z,25.63
2022-11-26T20:07:09.985Z,21.95
2022-11-26T20:09:38.491Z,31.10
2022-11-26T20:12:07.139Z,24.58
2022-11-26T20:14:35.482Z,29.55
2022-11-26T20:17:04.943Z,32.05
2022-11-26T20:19:33.381Z,31.08
2022-11-26T20:22:01.451Z,30.35
2022-11-26T20:24:29.772Z,31.50
2022-11-26T20:26:58.315Z,28.42
2022-11-26T20:29:26.466Z,42.30
2022-11-26T20:31:57.096Z,31.08
2022-11-26T20:34:27.816Z,41.15
2022-11-26T20:36:55.987Z,33.53
2022-11-26T20:39:24.975Z,27.90
2022-11-26T20:41:53.237Z,38.03
2022-11-26T20:44:23.079Z,28.35
2022-11-26T20:46:51.303Z,31.35
2022-11-26T20:49:20.559Z,30.70
2022-11-26T20:51:50.170Z,33.58
2022-11-26T20:54:20.473Z,34.63
2022-11-26T20:56:48.639Z,34.65
2022-11-26T20:59:17.044Z,33.40
2022-11-26T21:01:45.200Z,38.58
2022-11-26T21:04:13.415Z,34.63
2022-11-26T21:06:43.741Z,35.65
2022-11-26T21:09:14.625Z,39.80
2022-11-26T21:11:42.916Z,33.28
2022-11-26T21:14:14.933Z,39.83
2022-11-26T21:16:46.449Z,41.45
2022-11-26T21:19:14.677Z,36.25
2022-11-26T21:21:43.189Z,37.22
2022-11-26T21:24:13.209Z,35.03
2022-11-26T21:26:41.444Z,36.42
2022-11-26T21:29:09.759Z,37.85
2022-11-26T21:31:38.266Z,38.50
2022-11-26T21:34:08.560Z,35.17
2022-11-26T21:36:37.681Z,36.58
2022-11-26T21:39:08.136Z,37.42
2022-11-26T21:41:37.573Z,34.88
2022-11-26T21:44:08.104Z,34.85
2022-11-26T21:46:38.766Z,36.65
2022-11-26T21:49:08.063Z,36.83
2022-11-26T21:51:36.336Z,35.17
2022-11-26T21:54:04.686Z,33.63
2022-11-26T21:56:33.626Z,35.60
2022-11-26T21:59:04.034Z,40.88
2022-11-26T22:01:34.421Z,40.15
2022-11-26T22:04:07.135Z,38.38
2022-11-26T22:06:35.799Z,34.92
2022-11-26T22:09:04.667Z,35.08
2022-11-26T22:11:36.627Z,41.22
2022-11-26T22:14:07.217Z,44.53
2022-11-26T22:16:36.059Z,35.33
2022-11-26T22:19:05.287Z,40.85
2022-11-26T22:21:35.538Z,36.53
2022-11-26T22:24:05.154Z,39.90
2022-11-26T22:26:34.025Z,35.83
2022-11-26T22:29:02.129Z,33.58
2022-11-26T22:31:33.780Z,32.05
2022-11-26T22:34:03.995Z,36.20
2022-11-26T22:36:32.679Z,33.50
2022-11-26T22:39:03.013Z,34.08
2022-11-26T22:41:31.169Z,35.35
2022-11-26T22:44:00.122Z,33.28
2022-11-26T22:46:28.427Z,36.22
2022-11-26T22:48:59.492Z,31.45
2022-11-26T22:51:29.708Z,32.88
2022-11-26T22:53:59.753Z,35.63
2022-11-26T22:56:29.172Z,30.05
2022-11-26T22:58:57.848Z,33.63
2022-11-26T23:01:27.660Z,30.33
2022-11-26T23:03:59.142Z,27.58
2022-11-26T23:06:31.419Z,31.73
2022-11-26T23:09:00.486Z,25.80
2022-11-26T23:11:31.916Z,30.13
2022-11-26T23:14:01.992Z,32.10
2022-11-26T23:16:30.264Z,29.50
2022-11-26T23:19:02.999Z,29.25
2022-11-26T23:21:32.722Z,24.00
2022-11-26T23:24:01.134Z,30.90
2022-11-26T23:26:31.978Z,29.40
2022-11-26T23:29:02.051Z,33.17
2022-11-26T23:31:31.834Z,24.27
2022-11-26T23:34:00.147Z,27.88
2022-11-26T23:36:30.736Z,26.60
2022-11-26T23:39:01.211Z,24.55
2022-11-26T23:41:29.866Z,26.85
2022-11-26T23:43:58.156Z,30.83
2022-11-26T23:46:28.589Z,24.23
2022-11-26T23:48:57.073Z,24.23
2022-11-26T23:51:27.213Z,20.58
2022-11-26T23:53:56.869Z,21.65
2022-11-26T23:56:26.808Z,18.98
2022-11-26T23:58:58.723Z,19.00
